Terminal Aerodrome Forecast
Issued by NWS

Home | Current Version | Previous Version | Text Only | Print | Product List | Glossary On
Versions: 1 2 3 4 5 6 7 8 9 10 11 12 13
000
FTUS45 KTFX 250520
TAFHVR
TAF
KHVR 250520Z 2506/2606 23011KT P6SM VCSH SCT070 BKN110
      TEMPO 2506/2508 26017G25KT
     FM250800 26020G28KT P6SM SCT080 BKN180
     FM252200 25018G26KT P6SM SCT050 BKN080=

USA.gov is the U.S. government's official web portal to all federal, state and local government web resources and services.